createdAt,value
2022-09-03T00:01:38.240Z,11.98
2022-09-03T00:04:15.720Z,7.65
2022-09-03T00:07:03.338Z,9.73
2022-09-03T00:09:35.792Z,7.88
2022-09-03T00:12:11.004Z,5.38
2022-09-03T00:14:42.238Z,6.25
2022-09-03T00:17:16.634Z,6.47
2022-09-03T00:19:53.676Z,5.90
2022-09-03T00:22:25.835Z,7.60
2022-09-03T00:24:54.414Z,6.20
2022-09-03T00:27:27.082Z,11.85
2022-09-03T00:29:59.567Z,6.40
2022-09-03T00:32:38.470Z,8.45
2022-09-03T00:35:12.064Z,7.72
2022-09-03T00:37:42.003Z,6.57
2022-09-03T00:40:23.361Z,9.20
2022-09-03T00:43:03.084Z,6.85
2022-09-03T00:45:41.216Z,9.80
2022-09-03T00:48:20.371Z,8.23
2022-09-03T00:51:12.764Z,8.50
2022-09-03T00:53:51.497Z,12.15
2022-09-03T00:56:27.592Z,6.88
2022-09-03T00:59:28.566Z,10.40
2022-09-03T01:02:08.929Z,7.97
2022-09-03T01:04:52.178Z,10.05
2022-09-03T01:07:31.207Z,6.90
2022-09-03T01:10:10.098Z,6.45
2022-09-03T01:12:47.587Z,8.70
2022-09-03T01:15:20.957Z,11.20
2022-09-03T01:18:03.460Z,6.00
2022-09-03T01:20:44.394Z,6.32
2022-09-03T01:23:38.853Z,11.43
2022-09-03T01:26:29.183Z,7.75
2022-09-03T01:29:08.250Z,8.40
2022-09-03T01:31:44.348Z,9.95
2022-09-03T01:34:22.252Z,6.35
2022-09-03T01:37:00.825Z,9.45
2022-09-03T01:39:39.720Z,7.20
2022-09-03T01:42:20.941Z,7.78
2022-09-03T01:45:09.658Z,6.40
2022-09-03T01:47:50.243Z,6.80
2022-09-03T01:50:28.332Z,6.63
2022-09-03T01:53:03.342Z,5.68
2022-09-03T01:55:35.087Z,5.40
2022-09-03T01:58:12.467Z,5.28
2022-09-03T02:00:45.127Z,8.82
2022-09-03T02:03:14.635Z,6.22
2022-09-03T02:05:44.140Z,9.80
2022-09-03T02:08:12.380Z,6.40
2022-09-03T02:10:44.746Z,7.70
2022-09-03T02:13:21.462Z,5.57
2022-09-03T02:15:54.094Z,8.07
2022-09-03T02:18:27.057Z,7.13
2022-09-03T02:20:56.042Z,7.95
2022-09-03T02:23:27.712Z,6.72
2022-09-03T02:25:59.695Z,8.98
2022-09-03T02:28:29.184Z,5.45
2022-09-03T02:30:58.862Z,5.28
2022-09-03T02:33:27.504Z,11.13
2022-09-03T02:35:56.269Z,7.22
2022-09-03T02:38:27.271Z,6.68
2022-09-03T02:40:55.933Z,7.50
2022-09-03T02:43:29.659Z,8.50
2022-09-03T02:46:03.742Z,7.47
2022-09-03T02:48:31.921Z,5.95
2022-09-03T02:51:00.044Z,6.65
2022-09-03T02:53:29.110Z,6.65
2022-09-03T02:56:00.392Z,5.25
2022-09-03T02:58:29.559Z,7.95
2022-09-03T03:00:59.471Z,10.23
2022-09-03T03:03:28.053Z,8.40
2022-09-03T03:05:58.257Z,7.60
2022-09-03T03:08:29.100Z,7.13
2022-09-03T03:10:59.411Z,6.78
2022-09-03T03:13:28.202Z,6.32
2022-09-03T03:15:59.285Z,6.50
2022-09-03T03:18:28.322Z,9.85
2022-09-03T03:20:56.840Z,6.07
2022-09-03T03:23:25.178Z,5.32
2022-09-03T03:25:53.304Z,12.55
2022-09-03T03:28:21.439Z,7.85
2022-09-03T03:30:49.760Z,9.43
2022-09-03T03:33:19.287Z,9.05
2022-09-03T03:35:47.371Z,5.95
2022-09-03T03:38:15.518Z,8.40
2022-09-03T03:40:43.617Z,7.45
2022-09-03T03:43:11.692Z,7.63
2022-09-03T03:45:39.831Z,6.70
2022-09-03T03:48:07.937Z,5.78
2022-09-03T03:50:38.410Z,6.15
2022-09-03T03:53:06.443Z,7.35
2022-09-03T03:55:35.136Z,5.25
2022-09-03T03:58:03.458Z,8.50
2022-09-03T04:00:31.778Z,7.55
2022-09-03T04:03:01.674Z,6.72
2022-09-03T04:05:33.679Z,8.00
2022-09-03T04:08:04.500Z,9.38
2022-09-03T04:10:32.737Z,6.55
2022-09-03T04:13:01.105Z,7.38
2022-09-03T04:15:29.415Z,6.28
2022-09-03T04:17:57.606Z,8.13
2022-09-03T04:20:25.705Z,9.30
2022-09-03T04:22:53.801Z,8.13
2022-09-03T04:25:23.311Z,11.57
2022-09-03T04:27:52.902Z,8.88
2022-09-03T04:30:21.074Z,6.60
2022-09-03T04:32:54.700Z,8.50
2022-09-03T04:35:23.326Z,11.73
2022-09-03T04:37:51.475Z,5.72
2022-09-03T04:40:19.562Z,11.65
2022-09-03T04:42:49.124Z,6.38
2022-09-03T04:45:18.892Z,6.60
2022-09-03T04:47:58.052Z,6.32
2022-09-03T04:50:28.012Z,6.88
2022-09-03T04:53:07.628Z,7.03
2022-09-03T04:55:36.764Z,8.73
2022-09-03T04:58:07.796Z,8.07
2022-09-03T05:00:37.387Z,8.00
2022-09-03T05:03:06.014Z,7.72
2022-09-03T05:05:34.627Z,8.30
2022-09-03T05:08:03.156Z,7.18
2022-09-03T05:10:31.930Z,6.22
2022-09-03T05:13:02.834Z,6.72
2022-09-03T05:15:34.160Z,8.57
2022-09-03T05:18:03.943Z,7.45
2022-09-03T05:20:32.754Z,7.13
2022-09-03T05:23:03.636Z,9.38
2022-09-03T05:25:33.260Z,7.18
2022-09-03T05:28:01.883Z,8.52
2022-09-03T05:30:30.148Z,8.35
2022-09-03T05:32:59.679Z,8.00
2022-09-03T05:35:30.183Z,9.00
2022-09-03T05:37:59.580Z,10.35
2022-09-03T05:40:27.807Z,8.75
2022-09-03T05:42:59.064Z,9.20
2022-09-03T05:45:27.162Z,9.82
2022-09-03T05:47:55.272Z,9.38
2022-09-03T05:50:24.744Z,8.32
2022-09-03T05:52:53.129Z,8.15
2022-09-03T05:55:21.283Z,8.07
2022-09-03T05:57:53.208Z,8.93
2022-09-03T06:00:22.165Z,8.50
2022-09-03T06:02:52.678Z,11.57
2022-09-03T06:05:21.481Z,8.73
2022-09-03T06:07:50.955Z,11.32
2022-09-03T06:10:23.590Z,9.30
2022-09-03T06:12:53.800Z,11.23
2022-09-03T06:15:21.918Z,9.23
2022-09-03T06:17:50.084Z,7.40
2022-09-03T06:20:18.183Z,9.63
2022-09-03T06:22:53.583Z,9.02
2022-09-03T06:25:21.728Z,12.10
2022-09-03T06:27:49.831Z,7.90
2022-09-03T06:30:18.257Z,8.98
2022-09-03T06:32:46.466Z,7.68
2022-09-03T06:35:14.950Z,10.70
2022-09-03T06:37:43.948Z,7.45
2022-09-03T06:40:14.221Z,8.70
2022-09-03T06:42:46.021Z,5.78
2022-09-03T06:45:14.809Z,9.77
2022-09-03T06:47:42.849Z,9.85
2022-09-03T06:50:11.195Z,8.05
2022-09-03T06:52:39.254Z,9.18
2022-09-03T06:55:08.354Z,7.68
2022-09-03T06:57:37.798Z,5.45
2022-09-03T07:00:07.172Z,6.20
2022-09-03T07:02:35.265Z,7.75
2022-09-03T07:05:03.360Z,6.38
2022-09-03T07:07:32.769Z,7.80
2022-09-03T07:10:00.990Z,6.15
2022-09-03T07:12:29.332Z,6.72
2022-09-03T07:14:58.785Z,4.93
2022-09-03T07:17:28.560Z,7.15
2022-09-03T07:19:56.665Z,5.93
2022-09-03T07:22:31.211Z,7.32
2022-09-03T07:24:59.880Z,5.63
2022-09-03T07:27:27.998Z,7.15
2022-09-03T07:29:56.129Z,10.73
2022-09-03T07:32:25.644Z,8.00
2022-09-03T07:34:53.792Z,6.13
2022-09-03T07:37:21.850Z,5.35
2022-09-03T07:39:49.972Z,7.45
2022-09-03T07:42:18.176Z,7.40
2022-09-03T07:44:46.273Z,5.78
2022-09-03T07:47:15.066Z,7.80
2022-09-03T07:52:18.715Z,6.47
2022-09-03T07:54:46.909Z,6.97
2022-09-03T07:57:15.021Z,9.90
2022-09-03T07:59:43.142Z,8.27
2022-09-03T08:02:11.322Z,9.63
2022-09-03T08:04:41.102Z,10.93
2022-09-03T08:07:10.579Z,10.07
2022-09-03T08:09:38.755Z,8.60
2022-09-03T08:12:07.290Z,10.02
2022-09-03T08:14:35.570Z,11.68
2022-09-03T08:17:04.021Z,14.02
2022-09-03T08:19:32.201Z,9.07
2022-09-03T08:22:01.527Z,9.48
2022-09-03T08:24:31.184Z,8.10
2022-09-03T08:26:59.319Z,10.50
2022-09-03T08:29:27.646Z,8.90
2022-09-03T08:31:55.813Z,8.38
2022-09-03T08:34:24.593Z,8.43
2022-09-03T08:36:53.171Z,10.20
2022-09-03T08:39:21.380Z,7.57
2022-09-03T08:42:20.553Z,7.13
2022-09-03T08:44:51.679Z,6.00
2022-09-03T08:47:24.614Z,7.85
2022-09-03T08:49:57.513Z,6.55
2022-09-03T08:52:32.551Z,7.97
2022-09-03T08:55:21.897Z,7.38
2022-09-03T08:57:54.432Z,7.45
2022-09-03T09:00:22.677Z,6.50
2022-09-03T09:03:05.156Z,8.18
2022-09-03T09:05:46.342Z,8.90
2022-09-03T09:08:24.755Z,7.28
2022-09-03T09:11:03.670Z,7.07
2022-09-03T09:13:44.094Z,8.50
2022-09-03T09:16:21.766Z,6.25
2022-09-03T09:19:02.501Z,6.07
2022-09-03T09:21:35.299Z,6.32
2022-09-03T09:24:12.005Z,5.32
2022-09-03T09:26:42.818Z,6.45
2022-09-03T09:29:14.508Z,7.43
2022-09-03T09:31:45.213Z,5.28
2022-09-03T09:34:13.642Z,6.38
2022-09-03T09:36:48.877Z,8.75
2022-09-03T09:39:17.220Z,9.95
2022-09-03T09:41:57.769Z,10.55
2022-09-03T09:44:28.095Z,8.23
2022-09-03T09:47:12.969Z,9.10
2022-09-03T09:49:53.996Z,6.72
2022-09-03T09:52:25.872Z,6.10
2022-09-03T09:55:07.893Z,7.82
2022-09-03T09:57:37.358Z,6.70
2022-09-03T10:00:11.047Z,7.43
2022-09-03T10:02:49.544Z,6.60
2022-09-03T10:05:23.259Z,6.22
2022-09-03T10:10:35.066Z,11.07
2022-09-03T10:13:09.488Z,5.28
2022-09-03T10:15:43.678Z,7.22
2022-09-03T10:18:26.311Z,7.60
2022-09-03T10:21:06.640Z,8.35
2022-09-03T10:23:45.911Z,6.90
2022-09-03T10:26:16.766Z,6.75
2022-09-03T10:28:49.312Z,9.80
2022-09-03T10:31:40.917Z,9.57
2022-09-03T10:34:17.554Z,8.43
2022-09-03T10:36:55.851Z,7.68
2022-09-03T10:39:43.246Z,7.88
2022-09-03T10:42:22.717Z,7.85
2022-09-03T10:45:01.961Z,6.43
2022-09-03T10:47:43.726Z,13.07
2022-09-03T10:50:16.732Z,12.32
2022-09-03T10:53:07.089Z,10.68
2022-09-03T10:55:45.782Z,5.93
2022-09-03T10:58:30.809Z,7.40
2022-09-03T11:01:05.103Z,9.32
2022-09-03T11:03:46.719Z,6.63
2022-09-03T11:06:20.084Z,7.88
2022-09-03T11:08:55.109Z,4.78
2022-09-03T11:11:28.271Z,5.95
2022-09-03T11:14:02.403Z,5.30
2022-09-03T11:16:35.215Z,5.00
2022-09-03T11:19:10.843Z,6.55
2022-09-03T11:21:41.986Z,5.72
2022-09-03T11:24:15.801Z,5.15
2022-09-03T11:26:46.299Z,28.10
2022-09-03T11:29:21.448Z,12.23
2022-09-03T11:31:59.370Z,8.60
2022-09-03T11:34:33.116Z,4.57
2022-09-03T11:37:23.352Z,4.65
2022-09-03T11:40:00.886Z,5.35
2022-09-03T11:42:33.034Z,4.82
2022-09-03T11:45:14.880Z,9.20
2022-09-03T11:47:44.983Z,6.05
2022-09-03T11:50:22.689Z,3.50
2022-09-03T11:52:53.473Z,4.88
2022-09-03T11:55:38.373Z,5.15
2022-09-03T11:58:14.116Z,3.65
2022-09-03T12:00:45.335Z,5.25
2022-09-03T12:03:18.060Z,3.42
2022-09-03T12:05:57.381Z,4.73
2022-09-03T12:08:59.319Z,5.80
2022-09-03T12:11:42.759Z,5.13
2022-09-03T12:14:21.118Z,5.35
2022-09-03T12:17:08.045Z,3.92
2022-09-03T12:19:42.350Z,3.35
2022-09-03T12:22:17.699Z,5.18
2022-09-03T12:24:46.132Z,3.15
2022-09-03T12:27:22.694Z,3.88
2022-09-03T12:30:00.101Z,3.70
2022-09-03T12:32:32.394Z,3.55
2022-09-03T12:35:14.315Z,5.13
2022-09-03T12:40:34.314Z,5.95
2022-09-03T12:46:10.600Z,3.97
2022-09-03T12:48:43.632Z,5.05
2022-09-03T12:54:03.691Z,2.80
2022-09-03T12:56:34.992Z,4.70
2022-09-03T12:59:07.305Z,3.72
2022-09-03T13:01:47.316Z,9.85
2022-09-03T13:04:20.493Z,5.28
2022-09-03T13:06:56.553Z,3.95
2022-09-03T13:09:29.984Z,6.80
2022-09-03T13:14:28.563Z,6.07
2022-09-03T13:17:16.826Z,5.45
2022-09-03T13:19:59.645Z,4.60
2022-09-03T13:22:42.070Z,3.77
2022-09-03T13:25:21.713Z,4.60
2022-09-03T13:28:02.618Z,3.92
2022-09-03T13:30:35.589Z,3.80
2022-09-03T13:33:10.472Z,3.65
2022-09-03T13:35:43.838Z,3.45
2022-09-03T13:38:26.549Z,2.58
2022-09-03T13:41:02.800Z,4.67
2022-09-03T13:43:37.279Z,3.30
2022-09-03T13:46:09.610Z,5.10
2022-09-03T13:48:58.787Z,8.50
2022-09-03T13:51:30.051Z,3.97
2022-09-03T13:54:13.142Z,5.68
2022-09-03T13:56:57.785Z,4.20
2022-09-03T13:59:35.574Z,3.58
2022-09-03T14:02:15.942Z,3.85
2022-09-03T14:04:53.268Z,3.05
2022-09-03T14:07:27.363Z,2.53
2022-09-03T14:10:03.284Z,3.90
2022-09-03T14:12:44.336Z,6.30
2022-09-03T14:15:19.756Z,4.13
2022-09-03T14:17:53.505Z,5.30
2022-09-03T14:20:25.566Z,3.63
2022-09-03T14:22:58.393Z,2.63
2022-09-03T14:25:28.624Z,4.05
2022-09-03T14:28:15.163Z,2.83
2022-09-03T14:30:55.810Z,4.57
2022-09-03T14:33:32.134Z,3.95
2022-09-03T14:36:13.659Z,2.50
2022-09-03T14:39:04.102Z,4.60
2022-09-03T14:41:57.569Z,5.47
2022-09-03T14:44:50.000Z,4.07
2022-09-03T14:47:28.382Z,3.05
2022-09-03T14:50:11.033Z,3.15
2022-09-03T14:52:54.827Z,5.75
2022-09-03T14:55:40.551Z,6.63
2022-09-03T14:58:24.549Z,3.10
2022-09-03T15:01:01.658Z,4.18
2022-09-03T15:04:10.459Z,6.88
2022-09-03T15:06:53.333Z,4.28
2022-09-03T15:09:29.668Z,6.90
2022-09-03T15:12:01.652Z,6.72
2022-09-03T15:14:40.333Z,3.20
2022-09-03T15:17:29.935Z,5.10
2022-09-03T15:20:11.133Z,6.68
2022-09-03T15:23:06.112Z,5.25
2022-09-03T15:25:49.089Z,5.25
2022-09-03T15:28:29.914Z,3.95
2022-09-03T15:31:07.070Z,6.50
2022-09-03T15:33:43.808Z,6.28
2022-09-03T15:36:19.368Z,9.20
2022-09-03T15:38:54.038Z,8.57
2022-09-03T15:41:49.647Z,5.93
2022-09-03T15:44:20.114Z,5.00
2022-09-03T15:46:57.647Z,4.50
2022-09-03T15:49:47.747Z,5.20
2022-09-03T15:52:30.207Z,4.50
2022-09-03T15:55:06.701Z,4.57
2022-09-03T15:57:40.560Z,6.30
2022-09-03T16:00:12.386Z,5.03
2022-09-03T16:02:47.104Z,4.25
2022-09-03T16:05:21.073Z,3.88
2022-09-03T16:08:11.560Z,4.72
2022-09-03T16:11:02.980Z,5.40
2022-09-03T16:13:40.161Z,3.55
2022-09-03T16:16:12.463Z,5.07
2022-09-03T16:18:47.937Z,3.05
2022-09-03T16:21:28.381Z,3.60
2022-09-03T16:23:59.995Z,4.70
2022-09-03T16:26:34.700Z,4.60
2022-09-03T16:29:09.136Z,3.85
2022-09-03T16:31:52.160Z,7.00
2022-09-03T16:34:30.729Z,4.78
2022-09-03T16:37:10.590Z,4.72
2022-09-03T16:39:53.753Z,6.93
2022-09-03T16:42:29.374Z,4.65
2022-09-03T16:45:17.749Z,4.15
2022-09-03T16:48:14.705Z,3.75
2022-09-03T16:50:58.096Z,6.57
2022-09-03T16:53:36.681Z,9.40
2022-09-03T16:56:24.444Z,7.57
2022-09-03T16:59:03.739Z,8.73
2022-09-03T17:01:46.755Z,5.28
2022-09-03T17:04:48.781Z,8.02
2022-09-03T17:07:32.789Z,6.25
2022-09-03T17:10:08.260Z,5.25
2022-09-03T17:12:44.659Z,5.80
2022-09-03T17:15:32.102Z,6.55
2022-09-03T17:18:20.861Z,8.60
2022-09-03T17:20:55.886Z,12.45
2022-09-03T17:23:38.541Z,8.30
2022-09-03T17:26:13.889Z,7.50
2022-09-03T17:28:59.005Z,6.13
2022-09-03T17:31:39.379Z,8.30
2022-09-03T17:34:17.859Z,7.10
2022-09-03T17:37:00.652Z,6.25
2022-09-03T17:39:50.015Z,6.95
2022-09-03T17:42:26.744Z,6.97
2022-09-03T17:45:09.338Z,11.43
2022-09-03T17:48:06.287Z,10.25
2022-09-03T17:50:46.555Z,8.70
2022-09-03T17:53:21.124Z,5.55
2022-09-03T17:55:56.649Z,8.63
2022-09-03T17:58:32.990Z,7.78
2022-09-03T18:01:14.209Z,8.57
2022-09-03T18:03:48.628Z,7.00
2022-09-03T18:06:29.237Z,6.78
2022-09-03T18:09:01.999Z,11.30
2022-09-03T18:11:36.761Z,12.27
2022-09-03T18:14:16.724Z,9.07
2022-09-03T18:16:51.353Z,10.07
2022-09-03T18:19:31.013Z,14.77
2022-09-03T18:22:20.672Z,12.52
2022-09-03T18:25:13.475Z,10.43
2022-09-03T18:28:03.657Z,9.60
2022-09-03T18:30:52.720Z,9.55
2022-09-03T18:33:42.005Z,8.60
2022-09-03T18:36:28.268Z,9.80
2022-09-03T18:39:21.720Z,9.68
2022-09-03T18:42:18.686Z,14.00
2022-09-03T18:45:21.934Z,10.68
2022-09-03T18:48:21.005Z,13.02
2022-09-03T18:51:17.259Z,15.18
2022-09-03T18:54:12.618Z,10.93
2022-09-03T18:57:03.568Z,11.35
2022-09-03T19:00:08.618Z,12.68
2022-09-03T19:03:08.788Z,14.20
2022-09-03T19:06:04.205Z,10.57
2022-09-03T19:09:00.121Z,9.27
2022-09-03T19:11:54.953Z,13.60
2022-09-03T19:14:51.547Z,12.55
2022-09-03T19:17:46.113Z,13.73
2022-09-03T19:23:23.888Z,14.57
2022-09-03T19:26:13.110Z,12.73
2022-09-03T19:29:02.845Z,13.48
2022-09-03T19:32:01.969Z,15.32
2022-09-03T19:35:17.374Z,14.48
2022-09-03T19:38:15.208Z,9.35
2022-09-03T19:41:16.198Z,12.68
2022-09-03T19:44:15.190Z,12.57
2022-09-03T19:47:10.809Z,9.65
2022-09-03T19:50:09.606Z,10.73
2022-09-03T19:53:03.603Z,11.15
2022-09-03T19:55:53.180Z,10.93
2022-09-03T19:58:44.107Z,10.85
2022-09-03T20:01:31.823Z,8.07
2022-09-03T20:04:25.437Z,10.10
2022-09-03T20:07:10.836Z,10.45
2022-09-03T20:10:01.005Z,10.68
2022-09-03T20:12:34.668Z,14.00
2022-09-03T20:15:05.850Z,13.75
2022-09-03T20:17:42.872Z,12.65
2022-09-03T20:20:22.266Z,14.75
2022-09-03T20:22:59.321Z,11.20
2022-09-03T20:26:00.134Z,12.45
2022-09-03T20:28:46.937Z,13.05
2022-09-03T20:31:23.394Z,10.80
2022-09-03T20:34:09.171Z,10.60
2022-09-03T20:36:44.955Z,9.57
2022-09-03T20:39:44.423Z,15.68
2022-09-03T20:42:28.464Z,12.05
2022-09-03T20:45:06.649Z,11.73
2022-09-03T20:48:03.384Z,10.88
2022-09-03T20:50:44.280Z,11.70
2022-09-03T20:53:43.896Z,9.32
2022-09-03T20:56:19.865Z,13.25
2022-09-03T20:58:54.954Z,11.73
2022-09-03T21:01:32.040Z,11.55
2022-09-03T21:04:18.921Z,10.30
2022-09-03T21:06:56.133Z,12.38
2022-09-03T21:09:37.349Z,12.13
2022-09-03T21:12:13.653Z,10.23
2022-09-03T21:14:46.564Z,9.55
2022-09-03T21:17:32.188Z,13.02
2022-09-03T21:20:15.949Z,11.95
2022-09-03T21:22:56.589Z,12.45
2022-09-03T21:25:29.390Z,12.10
2022-09-03T21:28:04.114Z,8.20
2022-09-03T21:30:37.853Z,9.43
2022-09-03T21:33:10.562Z,9.90
2022-09-03T21:35:45.745Z,10.15
2022-09-03T21:38:19.662Z,9.27
2022-09-03T21:43:23.051Z,9.30
2022-09-03T21:45:59.277Z,9.00
2022-09-03T21:48:35.786Z,7.45
2022-09-03T21:51:10.398Z,7.07
2022-09-03T21:53:45.708Z,6.80
2022-09-03T21:56:27.189Z,8.25
2022-09-03T21:59:12.438Z,7.10
2022-09-03T22:01:51.805Z,8.05
2022-09-03T22:04:19.976Z,6.05
2022-09-03T22:06:57.485Z,6.80
2022-09-03T22:09:30.642Z,6.97
2022-09-03T22:12:04.061Z,9.73
2022-09-03T22:14:43.433Z,8.82
2022-09-03T22:17:17.224Z,9.52
2022-09-03T22:19:45.868Z,8.45
2022-09-03T22:22:22.710Z,9.00
2022-09-03T22:24:58.807Z,6.82
2022-09-03T22:27:37.663Z,9.13
2022-09-03T22:30:09.806Z,6.43
2022-09-03T22:32:51.619Z,9.15
2022-09-03T22:35:49.806Z,9.02
2022-09-03T22:38:48.036Z,12.20
2022-09-03T22:41:30.415Z,8.85
2022-09-03T22:44:09.180Z,7.88
2022-09-03T22:46:58.859Z,11.77
2022-09-03T22:49:36.926Z,11.75
2022-09-03T22:52:18.207Z,9.52
2022-09-03T22:55:01.071Z,9.23
2022-09-03T22:57:34.363Z,8.65
2022-09-03T23:00:06.656Z,8.23
2022-09-03T23:02:35.589Z,7.45
2022-09-03T23:05:08.152Z,8.80
2022-09-03T23:07:52.750Z,10.70
2022-09-03T23:10:29.242Z,6.47
2022-09-03T23:13:08.904Z,7.30
2022-09-03T23:15:41.594Z,12.32
2022-09-03T23:18:15.426Z,10.77
2022-09-03T23:20:49.211Z,10.90
2022-09-03T23:23:21.671Z,9.82
2022-09-03T23:25:55.605Z,9.25
2022-09-03T23:30:55.864Z,15.82
2022-09-03T23:33:24.100Z,9.00
2022-09-03T23:36:06.093Z,12.32
2022-09-03T23:38:47.638Z,9.85
2022-09-03T23:41:25.344Z,8.60
2022-09-03T23:44:18.998Z,8.25
2022-09-03T23:46:58.948Z,7.13
2022-09-03T23:49:40.471Z,9.55
2022-09-03T23:52:26.508Z,9.98
2022-09-03T23:55:04.152Z,11.60
2022-09-03T23:57:39.970Z,9.43
